Time;durP1;ratioP1;P1;durP2;ratioP2;P2;SDS_P1;SDS_P2;PMS_P1;PMS_P2;Temp;Humidity;BMP_temperature;BMP_pressure;BME280_temperature;BME280_humidity;BME280_pressure;Samples;Min_cycle;Max_cycle;Signal;HPM_P1;HPM_P2
2023/05/14 00:00:17;;;;;;;11.70;8.30;;;;;;;;;;5068930;28;20054;-67
2023/05/14 00:02:43;;;;;;;10.20;8.18;;;;;;;;;;5059410;28;20037;-67
2023/05/14 00:05:09;;;;;;;12.85;8.10;;;;;;;;;;5062224;28;20380;-67
2023/05/14 00:07:34;;;;;;;14.13;9.43;;;;;;;;;;5052949;28;20078;-67
2023/05/14 00:10:00;;;;;;;16.73;10.05;;;;;;;;;;5058561;28;20044;-67
2023/05/14 00:12:26;;;;;;;15.18;10.35;;;;;;;;;;5066051;28;20037;-67
2023/05/14 00:14:52;;;;;;;14.27;10.32;;;;;;;;;;5056667;28;20116;-67
2023/05/14 00:17:17;;;;;;;13.13;10.02;;;;;;;;;;5051263;28;20037;-67
2023/05/14 00:19:43;;;;;;;13.73;10.02;;;;;;;;;;5055965;28;20522;-67
2023/05/14 00:22:08;;;;;;;17.35;10.27;;;;;;;;;;5056635;28;20033;-66
2023/05/14 00:24:34;;;;;;;13.60;10.70;;;;;;;;;;5052920;28;20070;-67
2023/05/14 00:27:00;;;;;;;15.45;11.15;;;;;;;;;;5052499;28;20028;-66
2023/05/14 00:29:25;;;;;;;15.90;10.65;;;;;;;;;;5063326;28;20123;-68
2023/05/14 00:31:51;;;;;;;15.60;10.80;;;;;;;;;;5051965;28;20397;-66
2023/05/14 00:34:16;;;;;;;17.33;10.88;;;;;;;;;;5068331;28;20039;-67
2023/05/14 00:36:41;;;;;;;15.98;10.75;;;;;;;;;;5066176;28;20452;-67
2023/05/14 00:39:07;;;;;;;16.45;10.93;;;;;;;;;;5066307;28;20045;-66
2023/05/14 00:41:32;;;;;;;15.93;11.20;;;;;;;;;;5059864;28;20028;-66
2023/05/14 00:43:57;;;;;;;14.75;10.85;;;;;;;;;;5069785;28;20111;-67
2023/05/14 00:46:23;;;;;;;14.45;10.73;;;;;;;;;;5072954;28;20032;-67
2023/05/14 00:48:48;;;;;;;14.55;11.20;;;;;;;;;;5068562;28;20024;-67
2023/05/14 00:51:15;;;;;;;14.65;10.57;;;;;;;;;;5057008;28;20390;-66
2023/05/14 00:53:41;;;;;;;15.23;10.77;;;;;;;;;;5057710;28;20385;-67
2023/05/14 00:56:07;;;;;;;12.55;10.35;;;;;;;;;;5060467;28;20033;-67
2023/05/14 00:58:32;;;;;;;16.60;11.05;;;;;;;;;;5067560;28;20028;-67
2023/05/14 01:00:58;;;;;;;13.82;10.63;;;;;;;;;;5067518;28;20098;-65
2023/05/14 01:03:23;;;;;;;16.83;10.63;;;;;;;;;;5066644;28;20531;-66
2023/05/14 01:06:04;;;;;;;13.80;10.75;;;;;;;;;;5056154;28;20033;-67
2023/05/14 01:08:40;;;;;;;14.02;10.57;;;;;;;;;;5065515;28;20028;-67
2023/05/14 01:11:17;;;;;;;15.38;10.48;;;;;;;;;;5057440;28;20106;-65
2023/05/14 01:13:52;;;;;;;14.73;11.15;;;;;;;;;;5051253;28;20037;-67
2023/05/14 01:16:19;;;;;;;15.85;10.73;;;;;;;;;;5065381;28;20058;-67
2023/05/14 01:18:47;;;;;;;16.08;11.20;;;;;;;;;;5066079;28;20041;-67
2023/05/14 01:21:39;;;;;;;13.75;11.30;;;;;;;;;;5049476;28;20390;-66
2023/05/14 01:24:06;;;;;;;15.32;11.93;;;;;;;;;;5050620;28;20036;-67
2023/05/14 01:26:32;;;;;;;15.88;11.63;;;;;;;;;;5056898;28;20029;-67
2023/05/14 01:29:09;;;;;;;14.57;11.43;;;;;;;;;;5063668;28;20070;-67
2023/05/14 01:31:38;;;;;;;15.02;10.80;;;;;;;;;;5051492;28;20025;-68
2023/05/14 01:34:05;;;;;;;14.90;11.90;;;;;;;;;;5057322;28;20392;-67
2023/05/14 01:36:31;;;;;;;17.80;12.05;;;;;;;;;;5060357;28;20036;-67
2023/05/14 01:38:59;;;;;;;19.73;11.95;;;;;;;;;;5060599;28;20346;-67
2023/05/14 01:41:25;;;;;;;14.45;11.77;;;;;;;;;;5067939;28;20024;-66
2023/05/14 01:43:51;;;;;;;15.82;12.05;;;;;;;;;;5067005;28;20031;-67
2023/05/14 01:46:18;;;;;;;15.35;11.73;;;;;;;;;;5059901;28;20033;-67
2023/05/14 01:48:43;;;;;;;14.52;11.73;;;;;;;;;;5066505;28;20455;-68
2023/05/14 01:51:09;;;;;;;15.55;12.05;;;;;;;;;;5059134;28;20063;-67
2023/05/14 01:53:35;;;;;;;17.35;12.82;;;;;;;;;;5057384;28;20033;-67
2023/05/14 01:56:00;;;;;;;15.90;12.60;;;;;;;;;;5059766;28;20101;-67
2023/05/14 01:58:26;;;;;;;16.65;12.15;;;;;;;;;;5059099;28;20024;-65
2023/05/14 02:00:51;;;;;;;17.48;13.18;;;;;;;;;;5050972;28;20113;-67
2023/05/14 02:03:16;;;;;;;14.45;12.15;;;;;;;;;;5053126;28;20386;-66
2023/05/14 02:05:42;;;;;;;16.50;12.82;;;;;;;;;;5058290;28;20072;-67
2023/05/14 02:08:07;;;;;;;16.88;12.30;;;;;;;;;;5070328;28;20033;-67
2023/05/14 02:10:32;;;;;;;14.95;12.18;;;;;;;;;;5068608;28;20190;-66
2023/05/14 02:12:58;;;;;;;15.90;11.98;;;;;;;;;;5070417;28;20040;-67
2023/05/14 02:15:23;;;;;;;15.35;12.10;;;;;;;;;;5068238;28;20472;-66
2023/05/14 02:17:48;;;;;;;16.85;11.55;;;;;;;;;;5058051;28;20016;-68
2023/05/14 02:20:14;;;;;;;15.68;12.10;;;;;;;;;;5057764;28;20060;-66
2023/05/14 02:22:47;;;;;;;17.35;12.23;;;;;;;;;;5065697;28;20036;-69
2023/05/14 02:25:12;;;;;;;15.95;12.20;;;;;;;;;;5060859;28;20044;-66
2023/05/14 02:27:38;;;;;;;19.05;11.82;;;;;;;;;;5067756;28;20028;-67
2023/05/14 02:30:05;;;;;;;14.57;11.88;;;;;;;;;;5053759;28;20041;-69
2023/05/14 02:32:30;;;;;;;17.77;12.25;;;;;;;;;;5053183;28;20039;-67
2023/05/14 02:34:56;;;;;;;15.85;11.95;;;;;;;;;;5058576;28;20125;-67
2023/05/14 02:37:21;;;;;;;15.75;12.35;;;;;;;;;;5051333;28;20102;-67
2023/05/14 02:39:46;;;;;;;16.88;12.40;;;;;;;;;;5060908;28;20489;-68
2023/05/14 02:42:12;;;;;;;15.60;12.52;;;;;;;;;;5069153;28;20025;-67
2023/05/14 02:44:37;;;;;;;14.95;12.40;;;;;;;;;;5067679;28;20115;-67
2023/05/14 02:47:02;;;;;;;16.90;13.02;;;;;;;;;;5070962;28;20037;-68
2023/05/14 02:49:28;;;;;;;16.15;12.65;;;;;;;;;;5051454;28;20090;-67
2023/05/14 02:51:53;;;;;;;17.52;13.50;;;;;;;;;;5060557;28;20089;-67
2023/05/14 02:54:19;;;;;;;15.60;12.85;;;;;;;;;;5052443;28;20104;-67
2023/05/14 02:56:44;;;;;;;16.80;13.70;;;;;;;;;;5057081;28;20043;-67
2023/05/14 02:59:09;;;;;;;19.73;14.13;;;;;;;;;;5069072;28;20024;-67
2023/05/14 03:01:35;;;;;;;17.25;13.75;;;;;;;;;;5061082;28;20187;-67
2023/05/14 03:04:00;;;;;;;18.83;13.88;;;;;;;;;;5056709;28;20036;-67
2023/05/14 03:06:25;;;;;;;16.48;13.50;;;;;;;;;;5066676;28;20422;-67
2023/05/14 03:08:51;;;;;;;17.27;13.70;;;;;;;;;;5052459;28;20029;-67
2023/05/14 03:11:16;;;;;;;17.25;13.93;;;;;;;;;;5064484;28;20027;-66
2023/05/14 03:13:42;;;;;;;16.35;12.93;;;;;;;;;;5053013;28;20033;-68
2023/05/14 03:16:07;;;;;;;16.98;13.77;;;;;;;;;;5064475;28;20107;-67
2023/05/14 03:18:35;;;;;;;18.83;14.07;;;;;;;;;;5060131;28;20033;-67
2023/05/14 03:21:00;;;;;;;17.17;14.00;;;;;;;;;;5055664;28;20035;-67
2023/05/14 03:23:25;;;;;;;17.20;13.82;;;;;;;;;;5051553;28;20045;-68
2023/05/14 03:25:51;;;;;;;20.88;14.77;;;;;;;;;;5053897;28;20033;-66
2023/05/14 03:28:16;;;;;;;21.50;14.25;;;;;;;;;;5071048;28;20116;-66
2023/05/14 03:30:42;;;;;;;18.45;14.68;;;;;;;;;;5070458;28;20047;-67
2023/05/14 03:33:07;;;;;;;19.48;14.52;;;;;;;;;;5050575;28;20071;-67
2023/05/14 03:35:32;;;;;;;20.45;15.20;;;;;;;;;;5061913;28;20087;-68
2023/05/14 03:37:58;;;;;;;22.10;15.80;;;;;;;;;;5060029;28;20048;-67
2023/05/14 03:40:24;;;;;;;21.65;15.98;;;;;;;;;;5054576;28;20024;-66
2023/05/14 03:42:50;;;;;;;22.63;15.55;;;;;;;;;;5071536;28;20440;-67
2023/05/14 03:45:15;;;;;;;19.77;15.90;;;;;;;;;;5054914;28;20033;-67
2023/05/14 03:47:40;;;;;;;20.50;16.20;;;;;;;;;;5050002;28;20029;-67
2023/05/14 03:50:07;;;;;;;27.38;16.92;;;;;;;;;;5052252;28;20028;-66
2023/05/14 03:52:32;;;;;;;23.25;16.42;;;;;;;;;;5062769;28;20033;-66
2023/05/14 03:54:58;;;;;;;21.63;16.65;;;;;;;;;;5054675;28;20044;-66
2023/05/14 03:57:23;;;;;;;24.30;17.38;;;;;;;;;;5064461;28;20047;-66
2023/05/14 03:59:48;;;;;;;21.23;16.88;;;;;;;;;;5052649;28;20505;-67
2023/05/14 04:02:14;;;;;;;24.20;16.67;;;;;;;;;;5052687;28;20040;-67
2023/05/14 04:04:41;;;;;;;21.45;16.45;;;;;;;;;;5060630;28;20121;-68
2023/05/14 04:07:07;;;;;;;20.33;16.80;;;;;;;;;;5052743;28;20025;-68
2023/05/14 04:09:33;;;;;;;22.83;16.73;;;;;;;;;;5065566;28;20028;-66
2023/05/14 04:11:58;;;;;;;23.77;16.27;;;;;;;;;;5072801;28;20038;-67
2023/05/14 04:14:24;;;;;;;21.23;16.88;;;;;;;;;;5073502;28;20450;-67
2023/05/14 04:16:49;;;;;;;19.38;15.57;;;;;;;;;;5072857;28;20075;-68
2023/05/14 04:19:14;;;;;;;22.08;16.10;;;;;;;;;;5074217;28;20025;-68
2023/05/14 04:21:40;;;;;;;26.23;17.27;;;;;;;;;;5072456;28;20297;-68
2023/05/14 04:24:06;;;;;;;21.33;16.30;;;;;;;;;;5072431;28;20043;-67
2023/05/14 04:26:31;;;;;;;20.17;15.77;;;;;;;;;;5072552;28;20029;-66
2023/05/14 04:28:57;;;;;;;27.92;18.95;;;;;;;;;;5062077;28;20028;-68
2023/05/14 04:31:22;;;;;;;25.95;17.85;;;;;;;;;;5071631;28;20035;-65
2023/05/14 04:33:48;;;;;;;24.80;19.08;;;;;;;;;;5072190;28;20037;-67
2023/05/14 04:36:13;;;;;;;28.33;20.60;;;;;;;;;;5072236;28;20108;-67
2023/05/14 04:38:38;;;;;;;22.75;18.17;;;;;;;;;;5069835;28;20051;-67
2023/05/14 04:41:04;;;;;;;23.48;17.48;;;;;;;;;;5072243;28;20469;-68
2023/05/14 04:43:30;;;;;;;24.90;18.33;;;;;;;;;;5083694;28;20078;-67
2023/05/14 04:45:55;;;;;;;24.92;19.15;;;;;;;;;;5075242;28;20418;-72
2023/05/14 04:48:21;;;;;;;23.95;18.60;;;;;;;;;;5067255;28;20377;-69
2023/05/14 04:50:46;;;;;;;21.98;17.90;;;;;;;;;;5071238;28;20032;-65
2023/05/14 04:53:12;;;;;;;24.50;18.05;;;;;;;;;;5071890;28;20108;-66
2023/05/14 04:55:37;;;;;;;25.50;18.65;;;;;;;;;;5071149;28;20037;-66
2023/05/14 04:58:03;;;;;;;23.70;17.73;;;;;;;;;;5071799;28;20035;-66
2023/05/14 05:00:29;;;;;;;23.42;17.38;;;;;;;;;;5071486;28;20033;-70
2023/05/14 05:02:54;;;;;;;20.52;17.67;;;;;;;;;;5087150;28;20028;-71
2023/05/14 05:05:20;;;;;;;23.90;18.40;;;;;;;;;;5090798;28;20035;-70
2023/05/14 05:07:45;;;;;;;24.35;18.33;;;;;;;;;;5074869;28;20150;-71
2023/05/14 05:10:11;;;;;;;21.00;17.60;;;;;;;;;;5064323;28;20039;-70
2023/05/14 05:12:36;;;;;;;22.30;17.98;;;;;;;;;;5067051;28;20089;-71
2023/05/14 05:15:02;;;;;;;27.88;20.33;;;;;;;;;;5053358;28;20045;-69
2023/05/14 05:17:28;;;;;;;25.23;19.27;;;;;;;;;;5074991;28;20032;-68
2023/05/14 05:19:53;;;;;;;24.55;19.83;;;;;;;;;;5060401;28;20048;-69
2023/05/14 05:22:19;;;;;;;26.48;20.70;;;;;;;;;;5071487;28;20095;-68
2023/05/14 05:24:44;;;;;;;25.95;19.98;;;;;;;;;;5070693;28;20047;-70
2023/05/14 05:27:10;;;;;;;25.38;19.88;;;;;;;;;;5071240;28;20039;-70
2023/05/14 05:29:35;;;;;;;26.90;20.42;;;;;;;;;;5070751;28;20035;-70
2023/05/14 05:32:01;;;;;;;26.45;19.77;;;;;;;;;;5070271;28;20032;-69
2023/05/14 05:34:26;;;;;;;23.17;18.67;;;;;;;;;;5074172;28;20540;-68
2023/05/14 05:36:52;;;;;;;24.35;19.42;;;;;;;;;;5073112;28;20508;-69
2023/05/14 05:39:17;;;;;;;23.88;19.02;;;;;;;;;;5084613;28;20059;-70
2023/05/14 05:41:43;;;;;;;22.67;18.05;;;;;;;;;;5074038;28;20025;-69
2023/05/14 05:44:08;;;;;;;24.73;18.35;;;;;;;;;;5075360;28;20119;-70
2023/05/14 05:46:34;;;;;;;23.60;18.75;;;;;;;;;;5074419;28;20114;-70
2023/05/14 05:48:59;;;;;;;23.13;17.40;;;;;;;;;;5075339;28;20032;-69
2023/05/14 05:51:25;;;;;;;25.02;17.85;;;;;;;;;;5086011;28;20040;-71
2023/05/14 05:53:50;;;;;;;20.80;16.20;;;;;;;;;;5079098;28;20487;-72
2023/05/14 05:56:16;;;;;;;20.25;16.13;;;;;;;;;;5074755;28;20064;-70
2023/05/14 05:58:41;;;;;;;23.25;17.73;;;;;;;;;;5072884;28;20029;-71
2023/05/14 06:01:06;;;;;;;24.02;17.33;;;;;;;;;;5074364;28;20097;-71
2023/05/14 06:03:32;;;;;;;24.10;18.08;;;;;;;;;;5079676;28;20438;-71
2023/05/14 06:05:57;;;;;;;22.75;18.38;;;;;;;;;;5085682;28;20028;-71
2023/05/14 06:08:23;;;;;;;24.90;18.85;;;;;;;;;;5074543;28;20020;-72
2023/05/14 06:10:48;;;;;;;24.27;18.55;;;;;;;;;;5071780;28;20488;-70
2023/05/14 06:13:13;;;;;;;24.33;19.13;;;;;;;;;;5067587;28;20426;-70
2023/05/14 06:15:39;;;;;;;24.27;18.38;;;;;;;;;;5073098;28;20021;-70
2023/05/14 06:18:04;;;;;;;20.58;16.55;;;;;;;;;;5074735;28;20028;-69
2023/05/14 06:20:30;;;;;;;20.63;17.25;;;;;;;;;;5053819;28;20486;-69
2023/05/14 06:22:55;;;;;;;24.08;17.35;;;;;;;;;;5054237;28;20063;-69
2023/05/14 06:25:20;;;;;;;25.23;17.15;;;;;;;;;;5064903;28;20067;-68
2023/05/14 06:27:46;;;;;;;22.48;16.73;;;;;;;;;;5073182;28;20104;-70
2023/05/14 06:30:12;;;;;;;22.25;17.50;;;;;;;;;;5068058;28;20458;-69
2023/05/14 06:32:37;;;;;;;23.50;16.58;;;;;;;;;;5072763;28;20028;-70
2023/05/14 06:35:03;;;;;;;20.55;17.70;;;;;;;;;;5074347;28;20119;-69
2023/05/14 06:37:28;;;;;;;18.90;16.42;;;;;;;;;;5067744;28;20041;-70
2023/05/14 06:39:53;;;;;;;23.88;17.10;;;;;;;;;;5070265;28;20174;-69
2023/05/14 06:42:19;;;;;;;19.42;17.15;;;;;;;;;;5074230;28;20028;-69
2023/05/14 06:44:44;;;;;;;24.45;17.27;;;;;;;;;;5071394;28;20516;-70
2023/05/14 06:47:10;;;;;;;20.35;17.08;;;;;;;;;;5072953;28;20032;-70
2023/05/14 06:49:35;;;;;;;22.00;17.20;;;;;;;;;;5073242;28;20031;-69
2023/05/14 06:52:01;;;;;;;18.00;15.80;;;;;;;;;;5065745;28;20040;-69
2023/05/14 06:54:26;;;;;;;20.08;16.33;;;;;;;;;;5071912;28;20033;-71
2023/05/14 06:56:52;;;;;;;18.80;15.32;;;;;;;;;;5061795;28;20086;-68
2023/05/14 06:59:18;;;;;;;19.77;14.80;;;;;;;;;;5064281;28;20020;-70
2023/05/14 07:01:43;;;;;;;17.48;14.70;;;;;;;;;;5059832;28;20079;-70
2023/05/14 07:04:08;;;;;;;17.75;14.60;;;;;;;;;;5053585;28;20055;-70
2023/05/14 07:06:34;;;;;;;17.85;15.02;;;;;;;;;;5071142;28;20020;-69
2023/05/14 07:09:00;;;;;;;21.02;14.77;;;;;;;;;;5072474;28;20484;-69
2023/05/14 07:11:26;;;;;;;19.85;14.85;;;;;;;;;;5073913;28;20024;-70
2023/05/14 07:13:51;;;;;;;20.63;15.38;;;;;;;;;;5072649;28;20273;-68
2023/05/14 07:16:16;;;;;;;22.55;14.45;;;;;;;;;;5066661;28;20037;-68
2023/05/14 07:18:43;;;;;;;17.10;14.70;;;;;;;;;;5059754;28;20028;-68
2023/05/14 07:21:08;;;;;;;16.45;14.00;;;;;;;;;;5055717;28;20086;-68
2023/05/14 07:23:36;;;;;;;16.90;13.82;;;;;;;;;;5069869;28;20029;-68
2023/05/14 07:26:02;;;;;;;17.33;12.88;;;;;;;;;;5065614;28;20036;-69
2023/05/14 07:28:27;;;;;;;16.95;13.00;;;;;;;;;;5062947;28;20029;-68
2023/05/14 07:30:52;;;;;;;19.15;12.68;;;;;;;;;;5057682;28;20043;-69
2023/05/14 07:33:18;;;;;;;15.10;11.80;;;;;;;;;;5073757;28;20037;-69
2023/05/14 07:35:43;;;;;;;13.60;11.73;;;;;;;;;;5064245;28;20485;-69
2023/05/14 07:38:09;;;;;;;20.00;12.82;;;;;;;;;;5052946;28;20041;-68
2023/05/14 07:40:34;;;;;;;15.10;12.15;;;;;;;;;;5062260;28;20025;-68
2023/05/14 07:42:59;;;;;;;14.30;11.85;;;;;;;;;;5072959;28;20032;-69
2023/05/14 07:45:25;;;;;;;13.65;11.75;;;;;;;;;;5072800;28;20024;-68
2023/05/14 07:47:50;;;;;;;13.85;11.65;;;;;;;;;;5072272;28;20039;-69
2023/05/14 07:50:17;;;;;;;14.07;11.70;;;;;;;;;;5073545;28;20101;-70
2023/05/14 07:52:43;;;;;;;14.10;11.82;;;;;;;;;;5061428;28;20036;-68
2023/05/14 07:55:09;;;;;;;13.05;11.20;;;;;;;;;;5069699;28;20064;-69
2023/05/14 07:57:34;;;;;;;13.35;11.48;;;;;;;;;;5072230;28;20093;-68
2023/05/14 08:00:00;;;;;;;13.95;11.32;;;;;;;;;;5072316;28;20036;-69
2023/05/14 08:02:25;;;;;;;12.98;11.48;;;;;;;;;;5072332;28;20139;-68
2023/05/14 08:04:51;;;;;;;15.93;11.50;;;;;;;;;;5071694;28;20032;-70
2023/05/14 08:07:16;;;;;;;16.15;12.35;;;;;;;;;;5073322;28;20090;-69
2023/05/14 08:09:42;;;;;;;16.35;12.55;;;;;;;;;;5070823;28;20029;-68
2023/05/14 08:12:07;;;;;;;14.55;11.95;;;;;;;;;;5072173;28;20036;-68
2023/05/14 08:14:33;;;;;;;13.63;12.00;;;;;;;;;;5069717;28;20033;-69
2023/05/14 08:16:58;;;;;;;17.65;11.70;;;;;;;;;;5062278;28;20028;-69
2023/05/14 08:19:26;;;;;;;16.55;11.55;;;;;;;;;;5065991;28;20028;-70
2023/05/14 08:21:52;;;;;;;15.02;12.38;;;;;;;;;;5058328;28;20040;-70
2023/05/14 08:24:18;;;;;;;15.90;12.20;;;;;;;;;;5085387;28;20038;-69
2023/05/14 08:26:43;;;;;;;15.25;12.35;;;;;;;;;;5068003;28;20029;-69
2023/05/14 08:29:09;;;;;;;14.35;11.75;;;;;;;;;;5070140;28;20428;-70
2023/05/14 08:31:34;;;;;;;16.27;12.10;;;;;;;;;;5062432;28;20382;-70
2023/05/14 08:33:59;;;;;;;12.75;10.68;;;;;;;;;;5052059;28;20397;-75
2023/05/14 08:36:25;;;;;;;24.58;10.70;;;;;;;;;;5070802;28;20085;-69
2023/05/14 08:38:51;;;;;;;12.05;9.75;;;;;;;;;;5053969;28;20059;-70
2023/05/14 08:41:16;;;;;;;13.45;9.55;;;;;;;;;;5052059;28;20120;-70
2023/05/14 08:44:00;;;;;;;10.45;9.32;;;;;;;;;;5051031;28;20029;-69
2023/05/14 08:46:28;;;;;;;11.50;8.85;;;;;;;;;;5065816;28;20377;-70
2023/05/14 08:48:57;;;;;;;12.20;8.38;;;;;;;;;;5071070;28;20446;-70
2023/05/14 08:51:25;;;;;;;8.80;7.90;;;;;;;;;;5072040;28;20032;-69
2023/05/14 08:53:50;;;;;;;8.45;7.32;;;;;;;;;;5071111;28;20034;-69
2023/05/14 08:56:17;;;;;;;10.18;7.30;;;;;;;;;;5071926;28;20465;-69
2023/05/14 08:58:42;;;;;;;10.57;8.10;;;;;;;;;;5055311;28;20579;-69
2023/05/14 09:01:08;;;;;;;8.68;7.70;;;;;;;;;;5054907;28;20067;-69
2023/05/14 09:03:35;;;;;;;8.48;7.45;;;;;;;;;;5065733;28;20032;-70
2023/05/14 09:06:01;;;;;;;8.38;6.93;;;;;;;;;;5070906;28;20029;-69
2023/05/14 09:08:26;;;;;;;8.10;6.00;;;;;;;;;;5071686;28;20020;-70
2023/05/14 09:10:51;;;;;;;6.95;6.25;;;;;;;;;;5070603;28;20033;-70
2023/05/14 09:13:17;;;;;;;7.35;6.10;;;;;;;;;;5071833;28;20025;-69
2023/05/14 09:15:42;;;;;;;7.53;5.85;;;;;;;;;;5070768;28;20111;-69
2023/05/14 09:18:08;;;;;;;5.95;5.05;;;;;;;;;;5070040;28;20393;-71
2023/05/14 09:20:34;;;;;;;8.48;5.25;;;;;;;;;;5054132;28;20032;-70
2023/05/14 09:23:00;;;;;;;6.07;4.97;;;;;;;;;;5050905;28;20469;-69
2023/05/14 09:25:27;;;;;;;6.00;4.72;;;;;;;;;;5051643;28;20035;-69
2023/05/14 09:27:53;;;;;;;7.95;4.85;;;;;;;;;;5050635;28;20078;-69
2023/05/14 09:30:19;;;;;;;5.65;4.47;;;;;;;;;;5051343;28;20037;-69
2023/05/14 09:32:49;;;;;;;6.35;4.10;;;;;;;;;;5065652;28;20132;-69
2023/05/14 09:35:16;;;;;;;6.80;3.60;;;;;;;;;;5070286;28;20476;-70
2023/05/14 09:37:43;;;;;;;3.88;3.25;;;;;;;;;;5070511;28;20056;-69
2023/05/14 09:40:09;;;;;;;5.75;3.70;;;;;;;;;;5071526;28;20089;-70
2023/05/14 09:42:35;;;;;;;5.25;3.47;;;;;;;;;;5071655;28;20040;-71
2023/05/14 09:45:00;;;;;;;4.53;3.40;;;;;;;;;;5070606;28;20036;-70
2023/05/14 09:47:26;;;;;;;5.55;3.22;;;;;;;;;;5070454;28;20412;-70
2023/05/14 09:49:51;;;;;;;4.30;3.40;;;;;;;;;;5057957;28;20163;-70
2023/05/14 09:52:22;;;;;;;5.85;3.72;;;;;;;;;;5051295;28;20462;-71
2023/05/14 09:54:50;;;;;;;5.00;3.70;;;;;;;;;;5050496;28;20033;-70
2023/05/14 09:57:15;;;;;;;5.15;3.58;;;;;;;;;;5062251;28;20051;-70
2023/05/14 09:59:41;;;;;;;6.93;3.60;;;;;;;;;;5064963;28;20112;-68
2023/05/14 10:02:35;;;;;;;5.82;3.60;;;;;;;;;;5057594;28;20037;-69
2023/05/14 10:05:03;;;;;;;4.65;3.50;;;;;;;;;;5050373;28;20106;-70
2023/05/14 10:07:35;;;;;;;4.68;3.78;;;;;;;;;;5051124;28;20040;-70
2023/05/14 10:10:05;;;;;;;5.57;3.78;;;;;;;;;;5050183;28;20104;-69
2023/05/14 10:12:38;;;;;;;4.63;3.25;;;;;;;;;;5051492;28;20029;-70
2023/05/14 10:15:11;;;;;;;4.15;3.55;;;;;;;;;;5050254;28;20029;-69
2023/05/14 10:17:39;;;;;;;4.22;3.00;;;;;;;;;;5054600;28;20031;-69
2023/05/14 10:20:08;;;;;;;4.85;3.20;;;;;;;;;;5070020;28;20028;-69
2023/05/14 10:22:34;;;;;;;3.97;2.85;;;;;;;;;;5073075;28;20051;-71
2023/05/14 10:25:01;;;;;;;3.50;3.00;;;;;;;;;;5073702;28;20036;-70
2023/05/14 10:27:27;;;;;;;9.15;3.40;;;;;;;;;;5074617;28;20036;-70
2023/05/14 10:29:54;;;;;;;4.43;3.17;;;;;;;;;;5071509;28;20036;-69
2023/05/14 10:32:24;;;;;;;4.68;3.33;;;;;;;;;;5071840;28;20024;-70
2023/05/14 10:34:53;;;;;;;6.10;3.20;;;;;;;;;;5073675;28;20132;-69
2023/05/14 10:37:25;;;;;;;3.72;3.15;;;;;;;;;;5074131;28;20041;-70
2023/05/14 10:39:53;;;;;;;5.10;2.88;;;;;;;;;;5073447;28;20037;-69
2023/05/14 10:42:42;;;;;;;4.82;2.90;;;;;;;;;;5074338;28;20036;-70
2023/05/14 10:45:13;;;;;;;4.03;2.97;;;;;;;;;;5073309;28;20029;-69
2023/05/14 10:47:41;;;;;;;4.72;3.10;;;;;;;;;;5064440;28;20052;-70
2023/05/14 10:50:09;;;;;;;4.35;3.10;;;;;;;;;;5062885;28;20075;-69
2023/05/14 10:52:35;;;;;;;3.35;2.80;;;;;;;;;;5074068;28;20029;-69
2023/05/14 10:55:11;;;;;;;4.05;3.10;;;;;;;;;;5073245;28;20158;-69
2023/05/14 10:57:39;;;;;;;5.40;2.97;;;;;;;;;;5074123;28;20085;-70
2023/05/14 11:00:09;;;;;;;3.65;3.17;;;;;;;;;;5070213;28;20031;-69
2023/05/14 11:02:39;;;;;;;5.93;3.30;;;;;;;;;;5053943;28;20033;-71
2023/05/14 11:05:07;;;;;;;4.00;3.10;;;;;;;;;;5052925;28;20158;-71
2023/05/14 11:07:40;;;;;;;4.20;3.00;;;;;;;;;;5053373;28;20398;-69
2023/05/14 11:10:11;;;;;;;5.50;2.97;;;;;;;;;;5052426;28;20056;-69
2023/05/14 11:12:38;;;;;;;5.15;2.95;;;;;;;;;;5069264;28;20111;-69
2023/05/14 11:15:06;;;;;;;5.50;2.92;;;;;;;;;;5059316;28;20037;-69
2023/05/14 11:17:34;;;;;;;14.57;6.88;;;;;;;;;;5052023;28;20029;-70
2023/05/14 11:19:59;;;;;;;6.78;4.05;;;;;;;;;;5052617;28;20108;-69
2023/05/14 11:22:25;;;;;;;4.65;3.25;;;;;;;;;;5053441;28;20186;-69
2023/05/14 11:24:50;;;;;;;3.83;2.90;;;;;;;;;;5052666;28;20036;-69
2023/05/14 11:27:17;;;;;;;3.78;2.80;;;;;;;;;;5053337;28;20033;-69
2023/05/14 11:29:47;;;;;;;3.78;2.88;;;;;;;;;;5058866;28;20044;-71
2023/05/14 11:32:14;;;;;;;3.70;2.80;;;;;;;;;;5067264;28;20112;-69
2023/05/14 11:34:39;;;;;;;3.40;2.75;;;;;;;;;;5054532;28;20061;-69
2023/05/14 11:37:08;;;;;;;4.57;2.67;;;;;;;;;;5068455;28;20743;-70
2023/05/14 11:39:36;;;;;;;6.60;2.70;;;;;;;;;;5073047;28;20032;-69
2023/05/14 11:42:03;;;;;;;4.78;2.70;;;;;;;;;;5072244;28;20039;-69
2023/05/14 11:44:30;;;;;;;5.53;2.55;;;;;;;;;;5072881;28;20440;-69
2023/05/14 11:46:57;;;;;;;3.72;2.60;;;;;;;;;;5071098;28;20032;-69
2023/05/14 11:49:23;;;;;;;3.50;2.65;;;;;;;;;;5072809;28;20063;-69
2023/05/14 11:51:57;;;;;;;4.03;2.60;;;;;;;;;;5071695;28;20397;-69
2023/05/14 11:54:25;;;;;;;3.40;2.40;;;;;;;;;;5072793;28;20032;-71
2023/05/14 11:56:50;;;;;;;3.00;2.60;;;;;;;;;;5072190;28;20054;-69
2023/05/14 11:59:17;;;;;;;4.25;2.60;;;;;;;;;;5060243;28;20036;-71
2023/05/14 12:01:44;;;;;;;5.50;2.60;;;;;;;;;;5052847;28;20032;-70
2023/05/14 12:04:10;;;;;;;3.35;2.50;;;;;;;;;;5050555;28;20033;-71
2023/05/14 12:06:37;;;;;;;9.45;2.40;;;;;;;;;;5052484;28;20044;-70
2023/05/14 12:09:04;;;;;;;5.50;2.50;;;;;;;;;;5051505;28;20033;-70
2023/05/14 12:11:31;;;;;;;5.90;2.50;;;;;;;;;;5052509;28;20108;-71
2023/05/14 12:13:58;;;;;;;5.65;2.50;;;;;;;;;;5061834;28;20384;-69
2023/05/14 12:16:30;;;;;;;4.53;2.80;;;;;;;;;;5069164;28;20039;-71
2023/05/14 12:19:00;;;;;;;4.28;2.50;;;;;;;;;;5071290;28;20157;-69
2023/05/14 12:21:26;;;;;;;3.17;2.35;;;;;;;;;;5072100;28;20055;-71
2023/05/14 12:23:58;;;;;;;5.30;2.42;;;;;;;;;;5071252;28;20116;-69
2023/05/14 12:26:26;;;;;;;3.03;2.38;;;;;;;;;;5072393;28;20506;-71
2023/05/14 12:29:00;;;;;;;3.22;2.30;;;;;;;;;;5059457;28;20127;-69
2023/05/14 12:31:30;;;;;;;3.45;2.30;;;;;;;;;;5065721;28;20064;-70
2023/05/14 12:33:55;;;;;;;;;;;;;;;;;;5070125;28;20024;-71
2023/05/14 12:36:21;;;;;;;3.20;2.10;;;;;;;;;;5071982;28;20376;-70
2023/05/14 12:38:46;;;;;;;4.78;2.70;;;;;;;;;;5071610;28;20056;-70
2023/05/14 12:41:12;;;;;;;4.18;2.40;;;;;;;;;;5070865;28;20052;-69
2023/05/14 12:43:41;;;;;;;3.70;2.20;;;;;;;;;;5071973;28;20456;-70
2023/05/14 12:46:07;;;;;;;2.78;2.20;;;;;;;;;;5068805;28;20020;-69
2023/05/14 12:48:32;;;;;;;2.30;2.10;;;;;;;;;;5068126;28;20127;-70
2023/05/14 12:50:57;;;;;;;2.58;2.20;;;;;;;;;;5049275;28;20359;-70
2023/05/14 12:53:23;;;;;;;3.15;2.25;;;;;;;;;;5051356;28;20123;-70
2023/05/14 12:55:48;;;;;;;2.97;2.38;;;;;;;;;;5051502;28;20055;-70
2023/05/14 12:58:13;;;;;;;4.38;2.20;;;;;;;;;;5061966;28;20025;-70
2023/05/14 13:00:39;;;;;;;3.63;2.30;;;;;;;;;;5071731;28;20032;-70
2023/05/14 13:03:04;;;;;;;3.63;2.03;;;;;;;;;;5070754;28;20490;-70
2023/05/14 13:05:30;;;;;;;2.92;2.10;;;;;;;;;;5070365;28;20032;-70
2023/05/14 13:07:59;;;;;;;1.95;1.77;;;;;;;;;;5070655;28;20530;-70
2023/05/14 13:10:24;;;;;;;2.55;2.10;;;;;;;;;;5071450;28;20171;-70
2023/05/14 13:12:51;;;;;;;3.00;2.13;;;;;;;;;;5057225;28;20522;-70
2023/05/14 13:15:17;;;;;;;3.33;2.10;;;;;;;;;;5056962;28;20029;-69
2023/05/14 13:17:42;;;;;;;3.33;2.05;;;;;;;;;;5050682;28;20119;-69
2023/05/14 13:20:08;;;;;;;2.42;2.20;;;;;;;;;;5050167;28;20532;-70
2023/05/14 13:22:33;;;;;;;2.45;1.98;;;;;;;;;;5051350;28;20029;-68
2023/05/14 13:24:59;;;;;;;2.05;1.85;;;;;;;;;;5050309;28;20033;-70
2023/05/14 13:27:24;;;;;;;2.63;1.85;;;;;;;;;;5071246;28;20059;-69
2023/05/14 13:29:50;;;;;;;2.92;1.80;;;;;;;;;;5071212;28;20377;-70
2023/05/14 13:32:15;;;;;;;1.92;1.83;;;;;;;;;;5069903;28;20039;-68
2023/05/14 13:34:42;;;;;;;2.38;1.90;;;;;;;;;;5071401;28;20410;-69
2023/05/14 13:37:08;;;;;;;2.50;1.80;;;;;;;;;;5050914;28;20037;-70
2023/05/14 13:39:33;;;;;;;3.13;1.90;;;;;;;;;;5051341;28;20044;-69
2023/05/14 13:41:59;;;;;;;2.55;1.90;;;;;;;;;;5050385;28;20064;-69
2023/05/14 13:44:25;;;;;;;2.17;1.80;;;;;;;;;;5051213;28;20033;-69
2023/05/14 13:46:51;;;;;;;2.88;2.00;;;;;;;;;;5051243;28;20055;-70
2023/05/14 13:49:17;;;;;;;3.95;1.80;;;;;;;;;;5059294;28;20086;-69
2023/05/14 13:51:42;;;;;;;2.10;1.90;;;;;;;;;;5056030;28;20047;-70
2023/05/14 13:54:08;;;;;;;2.85;2.03;;;;;;;;;;5048981;28;20462;-71
2023/05/14 13:56:33;;;;;;;5.72;1.92;;;;;;;;;;5063025;28;20036;-70
2023/05/14 13:58:59;;;;;;;2.28;1.92;;;;;;;;;;5072657;28;20064;-70
2023/05/14 14:01:24;;;;;;;4.22;1.80;;;;;;;;;;5073855;28;20051;-70
2023/05/14 14:03:50;;;;;;;3.50;1.85;;;;;;;;;;5073604;28;20040;-70
2023/05/14 14:06:15;;;;;;;3.85;2.00;;;;;;;;;;5062693;28;20554;-69
2023/05/14 14:08:41;;;;;;;2.22;1.90;;;;;;;;;;5054789;28;20060;-70
2023/05/14 14:11:06;;;;;;;2.10;1.73;;;;;;;;;;5054852;28;20025;-71
2023/05/14 14:13:32;;;;;;;2.85;1.88;;;;;;;;;;5074771;28;20133;-70
2023/05/14 14:15:57;;;;;;;2.20;2.00;;;;;;;;;;5069958;28;20055;-71
2023/05/14 14:18:22;;;;;;;2.45;1.90;;;;;;;;;;5076223;28;20029;-71
2023/05/14 14:20:48;;;;;;;3.70;1.98;;;;;;;;;;5073781;28;20116;-71
2023/05/14 14:23:13;;;;;;;2.47;1.83;;;;;;;;;;5062605;28;20035;-69